createdAt,value
2019-04-24T00:00:37.230Z,30.50
2019-04-24T00:01:37.496Z,33.50
2019-04-24T00:02:51.149Z,33.50
2019-04-24T00:04:03.999Z,32.50
2019-04-24T00:05:22.683Z,33.00
2019-04-24T00:06:20.280Z,30.25
2019-04-24T00:07:12.505Z,30.00
2019-04-24T00:08:31.740Z,35.50
2019-04-24T00:09:46.801Z,36.25
2019-04-24T00:11:08.352Z,30.25
2019-04-24T00:12:22.682Z,26.75
2019-04-24T00:13:40.183Z,28.00
2019-04-24T00:19:27.682Z,30.75
2019-04-24T00:20:40.938Z,36.50
2019-04-24T00:21:42.334Z,37.25
2019-04-24T00:22:45.730Z,30.25
2019-04-24T00:24:12.765Z,30.25
2019-04-24T00:25:06.970Z,26.75
2019-04-24T00:26:14.643Z,32.50
2019-04-24T00:27:11.680Z,31.75
2019-04-24T00:29:19.531Z,30.50
2019-04-24T00:30:30.326Z,31.25
2019-04-24T00:32:47.813Z,35.50
2019-04-24T00:34:36.977Z,33.25
2019-04-24T00:37:39.940Z,31.25
2019-04-24T00:39:44.451Z,30.00
2019-04-24T00:41:11.514Z,32.00
2019-04-24T00:42:10.198Z,30.75
2019-04-24T00:43:28.465Z,31.75
2019-04-24T00:46:22.746Z,34.50
2019-04-24T00:48:26.804Z,33.00
2019-04-24T00:50:30.179Z,30.50
2019-04-24T00:51:43.937Z,29.25
2019-04-24T00:53:21.382Z,31.50
2019-04-24T00:54:39.319Z,29.75
2019-04-24T00:55:53.205Z,37.00
2019-04-24T00:57:16.647Z,31.25
2019-04-24T00:59:19.981Z,34.25
2019-04-24T00:59:56.553Z,32.00
2019-04-24T01:03:13.506Z,29.00
2019-04-24T01:07:19.408Z,32.75
2019-04-24T01:08:19.550Z,35.25
2019-04-24T01:09:33.490Z,31.50
2019-04-24T01:11:31.879Z,30.50
2019-04-24T01:12:59.361Z,28.00
2019-04-24T01:13:54.223Z,31.25
2019-04-24T01:15:09.785Z,28.00
2019-04-24T01:17:14.523Z,31.75
2019-04-24T01:18:08.906Z,34.00
2019-04-24T01:21:46.177Z,29.00
2019-04-24T01:23:25.403Z,29.75
2019-04-24T01:24:36.567Z,27.00
2019-04-24T01:25:47.628Z,30.00
2019-04-24T01:26:44.034Z,29.50
2019-04-24T01:28:05.319Z,32.50
2019-04-24T01:30:38.452Z,34.75
2019-04-24T01:32:38.310Z,29.00
2019-04-24T01:33:41.728Z,25.25
2019-04-24T01:34:56.767Z,30.50
2019-04-24T01:36:27.352Z,29.00
2019-04-24T01:37:37.141Z,26.50
2019-04-24T01:38:50.834Z,26.75
2019-04-24T01:40:04.710Z,25.50
2019-04-24T01:41:22.519Z,29.75
2019-04-24T01:42:59.880Z,28.50
2019-04-24T01:43:51.057Z,27.50
2019-04-24T01:46:00.586Z,27.00
2019-04-24T01:47:14.606Z,27.75
2019-04-24T01:48:20.509Z,27.25
2019-04-24T01:49:27.774Z,29.50
2019-04-24T01:50:23.281Z,32.75
2019-04-24T01:53:31.920Z,28.75
2019-04-24T01:55:31.668Z,31.00
2019-04-24T01:56:57.098Z,27.00
2019-04-24T01:57:46.542Z,30.00
2019-04-24T01:59:01.575Z,28.50
2019-04-24T02:00:07.958Z,25.00
2019-04-24T02:01:16.074Z,27.75
2019-04-24T02:02:32.309Z,28.50
2019-04-24T02:03:19.942Z,29.75
2019-04-24T02:04:35.590Z,31.25
2019-04-24T02:05:31.595Z,25.25
2019-04-24T02:07:00.837Z,28.00
2019-04-24T02:08:11.135Z,31.00
2019-04-24T02:09:14.072Z,29.50
2019-04-24T02:11:43.972Z,26.75
2019-04-24T02:12:58.536Z,31.00
2019-04-24T02:13:55.996Z,28.50
2019-04-24T02:15:10.343Z,27.00
2019-04-24T02:16:10.258Z,27.00
2019-04-24T02:17:20.431Z,24.75
2019-04-24T02:18:24.416Z,25.75
2019-04-24T02:19:18.789Z,29.00
2019-04-24T02:21:37.424Z,25.75
2019-04-24T02:22:46.430Z,28.75
2019-04-24T02:23:41.334Z,25.00
2019-04-24T02:24:51.331Z,28.00
2019-04-24T02:26:57.117Z,26.25
2019-04-24T02:29:12.772Z,22.75
2019-04-24T02:30:34.310Z,26.00
2019-04-24T02:33:03.496Z,32.25
2019-04-24T02:35:47.119Z,28.75
2019-04-24T02:38:01.524Z,26.50
2019-04-24T02:39:34.637Z,29.25
2019-04-24T02:46:31.346Z,20.50
2019-04-24T02:47:45.136Z,24.75
2019-04-24T02:50:58.470Z,30.25
2019-04-24T02:52:04.303Z,28.25
2019-04-24T02:53:22.175Z,25.75
2019-04-24T02:54:34.074Z,25.25
2019-04-24T02:58:45.630Z,28.75
2019-04-24T03:02:13.000Z,25.75
2019-04-24T03:03:04.888Z,26.25
2019-04-24T03:04:01.990Z,27.50
2019-04-24T03:04:55.968Z,28.25
2019-04-24T03:06:23.008Z,33.50
2019-04-24T03:08:43.414Z,28.00
2019-04-24T03:09:28.631Z,24.50
2019-04-24T03:10:45.757Z,29.50
2019-04-24T03:11:47.126Z,28.00
2019-04-24T03:15:48.266Z,23.75
2019-04-24T03:17:19.929Z,27.50
2019-04-24T03:19:11.593Z,30.50
2019-04-24T03:20:12.588Z,28.00
2019-04-24T03:27:10.338Z,27.00
2019-04-24T03:29:26.194Z,23.75
2019-04-24T03:32:06.081Z,24.25
2019-04-24T03:33:51.720Z,26.25
2019-04-24T03:37:13.060Z,24.00
2019-04-24T03:38:49.475Z,24.00
2019-04-24T03:39:48.502Z,27.00
2019-04-24T03:41:11.202Z,26.25
2019-04-24T03:43:15.604Z,30.25
2019-04-24T03:47:06.904Z,24.25
2019-04-24T03:51:38.702Z,24.00
2019-04-24T03:52:39.431Z,26.50
2019-04-24T03:55:36.046Z,28.00
2019-04-24T03:59:10.119Z,30.75
2019-04-24T04:04:18.865Z,26.25
2019-04-24T04:05:27.577Z,28.25
2019-04-24T04:06:33.931Z,26.25
2019-04-24T04:08:44.683Z,24.75
2019-04-24T04:09:45.685Z,29.75
2019-04-24T04:13:09.968Z,26.25
2019-04-24T04:13:53.105Z,31.00
2019-04-24T04:15:02.426Z,26.25
2019-04-24T04:16:11.234Z,27.50
2019-04-24T04:17:31.569Z,25.75
2019-04-24T04:18:35.339Z,28.00
2019-04-24T04:19:38.954Z,22.75
2019-04-24T04:20:50.017Z,30.00
2019-04-24T04:25:02.747Z,27.25
2019-04-24T04:27:51.551Z,44.75
2019-04-24T04:34:00.826Z,34.00
2019-04-24T04:34:52.193Z,33.00
2019-04-24T04:37:03.685Z,26.00
2019-04-24T04:38:23.443Z,30.00
2019-04-24T04:39:32.849Z,26.50
2019-04-24T04:40:48.187Z,31.75
2019-04-24T04:45:05.218Z,26.75
2019-04-24T04:47:27.282Z,33.50
2019-04-24T04:51:37.958Z,24.75
2019-04-24T04:53:22.554Z,26.25
2019-04-24T04:56:31.879Z,21.25
2019-04-24T04:57:24.218Z,27.25
2019-04-24T05:01:27.723Z,25.75
2019-04-24T05:02:46.113Z,28.00
2019-04-24T05:03:37.154Z,24.00
2019-04-24T05:05:04.499Z,26.25
2019-04-24T05:06:36.377Z,27.75
2019-04-24T05:07:28.904Z,28.00
2019-04-24T05:09:51.184Z,26.50
2019-04-24T05:10:47.149Z,27.50
2019-04-24T05:11:57.790Z,23.25
2019-04-24T05:17:48.046Z,26.25
2019-04-24T05:19:33.390Z,23.75
2019-04-24T05:20:42.997Z,24.75
2019-04-24T05:22:47.435Z,30.00
2019-04-24T05:24:01.743Z,26.25
2019-04-24T05:25:27.729Z,27.25
2019-04-24T05:27:06.547Z,24.75
2019-04-24T05:27:33.165Z,27.25
2019-04-24T05:29:00.980Z,27.50
2019-04-24T05:30:08.692Z,24.50
2019-04-24T05:44:18.951Z,27.50
2019-04-24T05:46:33.177Z,29.00
2019-04-24T05:49:03.811Z,34.75
2019-04-24T05:51:37.559Z,28.00
2019-04-24T05:52:47.656Z,31.50
2019-04-24T05:55:45.111Z,31.25
2019-04-24T05:58:14.363Z,29.00
2019-04-24T05:59:09.320Z,29.00
2019-04-24T06:00:07.846Z,32.50
2019-04-24T06:01:29.856Z,37.00
2019-04-24T06:07:46.810Z,30.50
2019-04-24T06:08:43.568Z,33.00
2019-04-24T06:11:14.413Z,27.25
2019-04-24T06:12:17.513Z,30.50
2019-04-24T06:13:39.061Z,27.00
2019-04-24T06:14:50.077Z,31.75
2019-04-24T06:16:20.560Z,28.50
2019-04-24T06:18:53.133Z,23.75
2019-04-24T06:20:01.855Z,26.25
2019-04-24T06:21:05.038Z,26.00
2019-04-24T06:23:56.231Z,21.75
2019-04-24T06:24:34.971Z,23.75
2019-04-24T06:26:45.768Z,23.50
2019-04-24T06:27:55.905Z,25.00
2019-04-24T06:31:22.391Z,24.25
2019-04-24T06:32:34.500Z,27.25
2019-04-24T06:33:45.449Z,25.00
2019-04-24T06:34:44.895Z,24.25
2019-04-24T06:38:32.939Z,29.75
2019-04-24T06:41:43.258Z,22.00
2019-04-24T06:42:57.899Z,23.25
2019-04-24T06:44:42.790Z,22.50
2019-04-24T06:46:14.636Z,23.75
2019-04-24T06:47:49.616Z,24.50
2019-04-24T06:52:48.953Z,25.00
2019-04-24T06:53:59.586Z,26.25
2019-04-24T06:55:03.404Z,24.75
2019-04-24T06:56:39.081Z,22.75
2019-04-24T06:57:24.794Z,24.75
2019-04-24T06:58:16.278Z,22.75
2019-04-24T06:59:41.056Z,25.75
2019-04-24T07:00:52.556Z,24.25
2019-04-24T07:02:24.814Z,25.75
2019-04-24T07:06:35.015Z,23.00
2019-04-24T07:08:46.208Z,23.25
2019-04-24T07:10:03.375Z,22.75
2019-04-24T07:12:45.318Z,24.00
2019-04-24T07:14:05.119Z,22.75
2019-04-24T07:15:29.055Z,28.00
2019-04-24T07:16:47.668Z,25.25
2019-04-24T07:23:24.189Z,23.75
2019-04-24T07:26:10.573Z,23.50
2019-04-24T07:27:09.083Z,23.25
2019-04-24T07:29:35.313Z,27.50
2019-04-24T07:31:53.727Z,24.00
2019-04-24T07:33:33.138Z,20.75
2019-04-24T07:34:55.594Z,27.75
2019-04-24T07:36:13.987Z,23.75
2019-04-24T07:37:28.985Z,24.25
2019-04-24T07:38:29.806Z,24.25
2019-04-24T07:39:45.666Z,23.00
2019-04-24T07:43:07.445Z,19.50
2019-04-24T07:44:14.825Z,19.00
2019-04-24T07:45:07.353Z,26.00
2019-04-24T07:46:16.915Z,21.75
2019-04-24T07:48:42.541Z,21.50
2019-04-24T07:49:56.037Z,25.00
2019-04-24T07:51:03.859Z,22.50
2019-04-24T07:53:06.061Z,25.00
2019-04-24T07:55:06.307Z,25.25
2019-04-24T07:56:55.440Z,31.00
2019-04-24T07:57:39.485Z,24.00
2019-04-24T07:59:09.396Z,24.00
2019-04-24T08:01:07.807Z,21.50
2019-04-24T08:03:59.142Z,22.25
2019-04-24T08:05:53.961Z,21.75
2019-04-24T08:08:33.104Z,22.00
2019-04-24T08:09:45.127Z,24.50
2019-04-24T08:11:53.750Z,20.75
2019-04-24T08:12:42.312Z,24.25
2019-04-24T08:13:54.651Z,24.25
2019-04-24T08:15:59.909Z,18.00
2019-04-24T08:17:17.492Z,19.00
2019-04-24T08:20:44.715Z,21.25
2019-04-24T08:21:37.951Z,23.00
2019-04-24T08:22:49.767Z,20.00
2019-04-24T08:23:53.478Z,21.25
2019-04-24T08:25:11.399Z,20.75
2019-04-24T08:27:15.648Z,21.25
2019-04-24T08:29:10.376Z,24.00
2019-04-24T08:30:28.639Z,19.75
2019-04-24T08:32:54.660Z,19.50
2019-04-24T08:34:58.287Z,20.75
2019-04-24T08:37:10.449Z,24.75
2019-04-24T08:38:50.675Z,23.50
2019-04-24T08:39:51.305Z,23.00
2019-04-24T08:43:05.173Z,23.75
2019-04-24T08:43:56.119Z,22.50
2019-04-24T08:45:07.890Z,18.00
2019-04-24T08:46:42.768Z,24.50
2019-04-24T08:47:59.188Z,22.25
2019-04-24T08:50:54.409Z,23.50
2019-04-24T08:53:43.913Z,22.75
2019-04-24T08:54:41.062Z,22.25
2019-04-24T08:57:27.728Z,23.75
2019-04-24T08:58:26.451Z,19.50
2019-04-24T09:03:31.755Z,25.25
2019-04-24T09:04:49.764Z,21.00
2019-04-24T09:05:58.099Z,25.75
2019-04-24T09:07:16.050Z,21.75
2019-04-24T09:08:12.799Z,21.75
2019-04-24T09:09:21.221Z,23.00
2019-04-24T09:12:11.054Z,24.75
2019-04-24T09:13:40.212Z,20.75
2019-04-24T09:14:29.714Z,23.00
2019-04-24T09:15:47.850Z,24.50
2019-04-24T09:17:59.744Z,18.25
2019-04-24T09:19:09.606Z,25.00
2019-04-24T09:21:12.106Z,22.25
2019-04-24T09:22:23.334Z,22.50
2019-04-24T09:24:10.641Z,19.75
2019-04-24T09:25:06.679Z,20.75
2019-04-24T09:31:01.448Z,16.75
2019-04-24T09:32:34.609Z,17.50
2019-04-24T09:34:06.793Z,19.50
2019-04-24T09:36:10.522Z,17.00
2019-04-24T09:37:10.151Z,17.00
2019-04-24T09:40:22.019Z,20.75
2019-04-24T09:41:13.871Z,18.50
2019-04-24T09:44:43.866Z,16.00
2019-04-24T09:46:38.310Z,15.25
2019-04-24T09:47:44.725Z,15.25
2019-04-24T09:49:50.988Z,18.00
2019-04-24T09:52:08.207Z,15.50
2019-04-24T09:54:43.415Z,15.75
2019-04-24T09:58:27.730Z,11.25
2019-04-24T10:00:46.220Z,11.00
2019-04-24T10:01:57.485Z,11.50
2019-04-24T10:09:34.550Z,12.50
2019-04-24T10:10:29.425Z,9.00
2019-04-24T10:14:12.311Z,12.00
2019-04-24T10:15:32.545Z,9.00
2019-04-24T10:16:45.711Z,10.00
2019-04-24T10:17:44.718Z,11.75
2019-04-24T10:21:21.957Z,9.00
2019-04-24T10:22:53.232Z,10.50
2019-04-24T10:25:29.086Z,10.25
2019-04-24T10:26:14.375Z,13.25
2019-04-24T10:27:31.401Z,12.50
2019-04-24T10:29:11.520Z,12.50
2019-04-24T10:43:36.122Z,8.00
2019-04-24T10:44:55.756Z,9.50
2019-04-24T10:46:32.983Z,8.00
2019-04-24T10:49:02.280Z,9.00
2019-04-24T10:50:04.671Z,10.75
2019-04-24T10:51:15.381Z,10.50
2019-04-24T10:52:20.765Z,11.50
2019-04-24T10:54:43.396Z,7.25
2019-04-24T10:56:50.081Z,9.75
2019-04-24T10:58:01.876Z,11.00
2019-04-24T10:58:56.544Z,8.50
2019-04-24T11:00:11.488Z,8.00
2019-04-24T11:01:47.430Z,10.50
2019-04-24T11:04:00.849Z,10.25
2019-04-24T11:05:15.360Z,9.50
2019-04-24T11:06:28.960Z,11.75
2019-04-24T11:08:02.630Z,11.25
2019-04-24T11:09:03.829Z,9.25
2019-04-24T11:10:30.145Z,11.50
2019-04-24T11:11:59.563Z,10.75
2019-04-24T11:14:45.172Z,10.00
2019-04-24T11:20:33.478Z,9.00
2019-04-24T11:24:25.609Z,9.50
2019-04-24T11:27:04.757Z,8.75
2019-04-24T11:28:17.665Z,9.00
2019-04-24T11:29:45.134Z,9.50
2019-04-24T11:30:49.296Z,8.75
2019-04-24T11:32:19.261Z,9.75
2019-04-24T11:33:34.851Z,9.00
2019-04-24T11:36:14.266Z,8.50
2019-04-24T11:37:43.707Z,9.25
2019-04-24T11:39:05.317Z,8.75
2019-04-24T11:41:37.250Z,9.75
2019-04-24T11:42:43.590Z,8.25
2019-04-24T11:43:53.196Z,10.00
2019-04-24T11:45:02.174Z,10.00
2019-04-24T11:46:46.975Z,7.00
2019-04-24T11:48:07.224Z,8.00
2019-04-24T11:49:14.805Z,6.75
2019-04-24T11:50:53.563Z,9.00
2019-04-24T11:51:48.859Z,9.75
2019-04-24T11:53:11.415Z,9.00
2019-04-24T11:53:54.295Z,8.25
2019-04-24T11:55:32.884Z,7.25
2019-04-24T11:56:39.869Z,8.75
2019-04-24T11:58:19.551Z,8.25
2019-04-24T11:59:16.869Z,10.50
2019-04-24T12:00:26.325Z,10.00
2019-04-24T12:02:21.100Z,8.50
2019-04-24T12:03:19.935Z,9.00
2019-04-24T12:04:49.432Z,9.75
2019-04-24T12:05:56.826Z,8.50
2019-04-24T12:07:12.060Z,8.50
2019-04-24T12:08:48.014Z,8.00
2019-04-24T12:09:28.695Z,8.00
2019-04-24T12:11:52.119Z,8.50
2019-04-24T12:12:55.428Z,11.25
2019-04-24T12:14:13.746Z,12.00
2019-04-24T12:15:30.724Z,9.50
2019-04-24T12:17:05.015Z,8.50
2019-04-24T12:18:16.389Z,7.75
2019-04-24T12:19:35.655Z,9.75
2019-04-24T12:21:01.310Z,8.25
2019-04-24T12:22:10.060Z,9.50
2019-04-24T12:23:25.643Z,10.25
2019-04-24T12:25:44.299Z,11.00
2019-04-24T12:26:31.102Z,7.25
2019-04-24T12:28:58.730Z,8.75
2019-04-24T12:30:58.016Z,7.00
2019-04-24T12:33:43.803Z,9.75
2019-04-24T12:35:57.129Z,7.00
2019-04-24T12:39:07.999Z,6.75
2019-04-24T12:40:40.793Z,8.25
2019-04-24T12:42:01.712Z,11.00
2019-04-24T12:42:59.415Z,7.75
2019-04-24T12:45:41.911Z,11.75
2019-04-24T12:48:55.266Z,9.50
2019-04-24T12:50:07.001Z,10.00
2019-04-24T12:51:04.444Z,8.00
2019-04-24T12:54:19.856Z,9.75
2019-04-24T12:55:44.942Z,9.00
2019-04-24T12:57:10.578Z,8.75
2019-04-24T12:58:25.856Z,8.00
2019-04-24T12:59:44.344Z,7.00
2019-04-24T13:01:16.575Z,8.00
2019-04-24T13:05:00.377Z,10.00
2019-04-24T13:07:17.910Z,7.50
2019-04-24T13:08:21.336Z,8.00
2019-04-24T13:11:37.868Z,7.50
2019-04-24T13:15:25.561Z,7.00
2019-04-24T13:18:15.278Z,9.25
2019-04-24T13:19:15.591Z,13.00
2019-04-24T13:19:54.711Z,11.50
2019-04-24T13:21:03.558Z,10.50
2019-04-24T13:22:18.534Z,8.00
2019-04-24T13:23:28.993Z,8.00
2019-04-24T13:24:43.198Z,8.75
2019-04-24T13:26:25.881Z,8.00
2019-04-24T13:28:09.479Z,8.00
2019-04-24T13:31:30.993Z,9.00
2019-04-24T13:33:03.911Z,8.00
2019-04-24T13:34:02.582Z,8.00
2019-04-24T13:35:13.674Z,8.00
2019-04-24T13:37:26.407Z,9.00
2019-04-24T13:43:05.614Z,8.25
2019-04-24T13:44:16.664Z,11.50
2019-04-24T13:46:25.236Z,9.25
2019-04-24T13:47:18.518Z,8.25
2019-04-24T13:48:32.780Z,9.00
2019-04-24T13:49:29.950Z,8.50
2019-04-24T13:52:14.141Z,8.25
2019-04-24T13:54:02.667Z,9.25
2019-04-24T13:55:04.119Z,7.25
2019-04-24T13:58:29.525Z,10.75
2019-04-24T13:59:27.101Z,9.25
2019-04-24T14:00:41.483Z,9.25
2019-04-24T14:04:06.883Z,7.00
2019-04-24T14:05:02.419Z,10.75
2019-04-24T14:06:21.810Z,9.75
2019-04-24T14:07:17.031Z,10.25
2019-04-24T14:10:52.666Z,9.50
2019-04-24T14:12:26.723Z,9.50
2019-04-24T14:12:54.603Z,11.00
2019-04-24T14:14:04.541Z,8.75
2019-04-24T14:15:10.284Z,10.50
2019-04-24T14:17:09.705Z,9.50
2019-04-24T14:18:16.717Z,9.75
2019-04-24T14:23:14.087Z,10.50
2019-04-24T14:24:19.100Z,10.75
2019-04-24T14:26:26.541Z,9.75
2019-04-24T14:27:34.072Z,11.00
2019-04-24T14:29:43.157Z,12.75
2019-04-24T14:34:15.125Z,8.00
2019-04-24T14:35:22.218Z,11.75
2019-04-24T14:37:25.058Z,9.75
2019-04-24T14:39:05.998Z,9.00
2019-04-24T14:39:42.317Z,10.50
2019-04-24T14:40:48.800Z,9.75
2019-04-24T14:41:55.718Z,10.00
2019-04-24T14:43:00.256Z,11.00
2019-04-24T14:44:56.083Z,15.00
2019-04-24T14:45:54.762Z,11.00
2019-04-24T14:46:57.174Z,10.75
2019-04-24T14:47:47.893Z,10.00
2019-04-24T14:49:16.400Z,11.50
2019-04-24T14:51:26.349Z,12.50
2019-04-24T14:52:21.877Z,11.50
2019-04-24T14:53:29.809Z,10.25
2019-04-24T14:54:30.195Z,12.00
2019-04-24T14:55:37.910Z,9.50
2019-04-24T14:57:59.215Z,12.00
2019-04-24T14:59:15.624Z,11.00
2019-04-24T15:01:19.213Z,10.50
2019-04-24T15:02:31.799Z,11.25
2019-04-24T15:03:21.296Z,12.25
2019-04-24T15:04:39.302Z,11.00
2019-04-24T15:05:51.952Z,12.50
2019-04-24T15:07:18.891Z,11.00
2019-04-24T15:08:15.739Z,11.00
2019-04-24T15:10:25.308Z,12.00
2019-04-24T15:11:20.402Z,12.00
2019-04-24T15:14:57.717Z,13.50
2019-04-24T15:16:11.490Z,11.25
2019-04-24T15:17:30.830Z,11.00
2019-04-24T15:18:45.177Z,10.25
2019-04-24T15:20:04.074Z,12.50
2019-04-24T15:20:58.838Z,11.00
2019-04-24T15:22:13.642Z,9.50
2019-04-24T15:23:07.818Z,10.00
2019-04-24T15:24:37.227Z,12.00
2019-04-24T15:27:26.911Z,9.50
2019-04-24T15:28:31.007Z,15.00
2019-04-24T15:29:39.689Z,10.75
2019-04-24T15:31:55.781Z,12.75
2019-04-24T15:32:59.233Z,10.25
2019-04-24T15:34:12.527Z,12.00
2019-04-24T15:37:26.420Z,12.75
2019-04-24T15:38:16.714Z,13.00
2019-04-24T15:39:33.567Z,11.50
2019-04-24T15:40:43.018Z,11.50
2019-04-24T15:42:51.423Z,12.00
2019-04-24T15:43:42.480Z,12.00
2019-04-24T15:47:36.911Z,12.75
2019-04-24T15:49:44.518Z,12.00
2019-04-24T15:51:49.681Z,11.50
2019-04-24T15:53:02.614Z,15.50
2019-04-24T15:54:07.181Z,14.00
2019-04-24T15:55:13.668Z,11.75
2019-04-24T15:56:16.699Z,14.75
2019-04-24T15:57:21.397Z,10.25
2019-04-24T15:58:33.868Z,12.25
2019-04-24T15:59:55.263Z,13.00
2019-04-24T16:01:15.373Z,11.00
2019-04-24T16:03:23.419Z,16.00
2019-04-24T16:05:00.207Z,11.75
2019-04-24T16:06:27.992Z,12.25
2019-04-24T16:07:55.538Z,12.25
2019-04-24T16:09:01.669Z,11.00
2019-04-24T16:10:23.708Z,11.50
2019-04-24T16:11:26.636Z,12.00
2019-04-24T16:12:31.072Z,12.00
2019-04-24T16:13:43.861Z,13.50
2019-04-24T16:15:00.733Z,16.25
2019-04-24T16:17:09.353Z,13.25
2019-04-24T16:18:35.900Z,11.00
2019-04-24T16:20:54.412Z,11.25
2019-04-24T16:21:46.784Z,13.25
2019-04-24T16:25:21.670Z,16.25
2019-04-24T16:26:28.118Z,15.50
2019-04-24T16:27:44.499Z,11.00
2019-04-24T16:28:47.228Z,9.50
2019-04-24T16:29:40.914Z,11.00
2019-04-24T16:45:20.177Z,10.25
2019-04-24T16:46:52.203Z,10.00
2019-04-24T16:48:12.098Z,9.75
2019-04-24T16:51:14.660Z,8.50
2019-04-24T16:52:03.824Z,9.75
2019-04-24T16:53:10.100Z,9.75
2019-04-24T16:57:39.143Z,10.00
2019-04-24T16:58:28.362Z,11.50
2019-04-24T16:59:21.582Z,13.00
2019-04-24T17:01:48.332Z,9.25
2019-04-24T17:01:52.166Z,10.25
2019-04-24T17:04:24.729Z,9.50
2019-04-24T17:05:29.595Z,11.25
2019-04-24T17:06:26.075Z,12.00
2019-04-24T17:08:08.681Z,12.00
2019-04-24T17:08:53.961Z,12.50
2019-04-24T17:11:01.439Z,13.00
2019-04-24T17:14:46.247Z,10.50
2019-04-24T17:15:46.905Z,13.00
2019-04-24T17:17:28.265Z,11.25
2019-04-24T17:18:31.422Z,10.00
2019-04-24T17:20:25.075Z,12.25
2019-04-24T17:22:39.273Z,9.00
2019-04-24T17:25:58.378Z,14.25
2019-04-24T17:27:07.487Z,12.00
2019-04-24T17:28:15.771Z,11.50
2019-04-24T17:29:17.464Z,11.25
2019-04-24T17:31:27.958Z,10.00
2019-04-24T17:33:42.225Z,12.50
2019-04-24T17:34:56.665Z,13.25
2019-04-24T17:35:49.366Z,9.00
2019-04-24T17:36:30.731Z,9.00
2019-04-24T17:37:29.525Z,7.75
2019-04-24T17:38:40.389Z,10.25
2019-04-24T17:39:58.095Z,8.50
2019-04-24T17:41:03.545Z,6.00
2019-04-24T17:42:15.161Z,9.25
2019-04-24T17:43:46.023Z,9.00
2019-04-24T17:44:50.120Z,6.00
2019-04-24T17:49:29.858Z,1.25
2019-04-24T17:50:25.536Z,2.00
2019-04-24T17:52:46.792Z,2.00
2019-04-24T17:53:37.977Z,2.00
2019-04-24T17:54:34.902Z,1.50
2019-04-24T17:55:56.410Z,2.00
2019-04-24T17:57:50.182Z,1.00
2019-04-24T17:58:37.122Z,2.00
2019-04-24T17:59:40.001Z,1.25
2019-04-24T18:00:58.793Z,1.00
2019-04-24T18:02:07.539Z,1.25
2019-04-24T18:03:15.874Z,1.00
2019-04-24T18:04:24.491Z,1.00
2019-04-24T18:05:30.219Z,1.00
2019-04-24T18:06:33.875Z,1.00
2019-04-24T18:07:36.667Z,1.00
2019-04-24T18:08:40.123Z,1.00
2019-04-24T18:09:42.924Z,1.00
2019-04-24T18:10:48.486Z,1.50
2019-04-24T18:11:59.058Z,1.00
2019-04-24T18:13:03.596Z,1.75
2019-04-24T18:14:06.775Z,1.00
2019-04-24T18:15:11.929Z,1.00
2019-04-24T18:16:23.478Z,1.00
2019-04-24T18:17:32.489Z,1.00
2019-04-24T18:18:36.404Z,1.00
2019-04-24T18:19:42.077Z,1.00
2019-04-24T18:20:52.978Z,2.00
2019-04-24T18:21:57.992Z,1.25
2019-04-24T18:23:02.919Z,1.00
2019-04-24T18:24:06.799Z,1.00
2019-04-24T18:25:34.205Z,2.00
2019-04-24T18:27:03.222Z,1.00
2019-04-24T18:28:15.716Z,1.00
2019-04-24T18:29:19.262Z,1.00
2019-04-24T18:30:30.509Z,1.00
2019-04-24T18:31:31.804Z,1.50
2019-04-24T18:32:34.706Z,1.00
2019-04-24T18:33:38.088Z,1.00
2019-04-24T18:34:41.476Z,1.00
2019-04-24T18:35:51.515Z,1.00
2019-04-24T18:36:55.933Z,1.00
2019-04-24T18:38:06.626Z,1.00
2019-04-24T18:39:08.292Z,1.00
2019-04-24T18:40:13.143Z,1.00
2019-04-24T18:41:17.077Z,2.50
2019-04-24T18:42:22.602Z,1.00
2019-04-24T18:43:25.528Z,1.00
2019-04-24T18:44:28.595Z,1.00
2019-04-24T18:45:34.780Z,1.00
2019-04-24T18:46:41.648Z,1.00
2019-04-24T18:47:44.935Z,1.00
2019-04-24T18:48:49.560Z,1.00
2019-04-24T18:49:52.789Z,1.50
2019-04-24T18:50:55.883Z,1.00
2019-04-24T18:51:58.799Z,1.00
2019-04-24T18:53:04.710Z,1.00
2019-04-24T18:54:08.985Z,3.00
2019-04-24T18:55:13.499Z,1.00
2019-04-24T18:56:17.695Z,1.00
2019-04-24T18:57:22.186Z,2.00
2019-04-24T18:58:25.986Z,1.00
2019-04-24T18:59:29.143Z,1.00
2019-04-24T19:00:32.549Z,1.00
2019-04-24T19:01:35.470Z,1.00
2019-04-24T19:02:44.866Z,2.00
2019-04-24T19:03:48.142Z,1.00
2019-04-24T19:04:53.861Z,1.00
2019-04-24T19:05:58.920Z,1.00
2019-04-24T19:07:04.067Z,1.00
2019-04-24T19:08:07.265Z,1.00
2019-04-24T19:09:13.935Z,1.00
2019-04-24T19:10:24.474Z,1.00
2019-04-24T19:11:27.318Z,2.50
2019-04-24T19:12:31.370Z,1.50
2019-04-24T19:13:34.118Z,3.50
2019-04-24T19:14:36.870Z,1.00
2019-04-24T19:15:39.719Z,1.00
2019-04-24T19:16:43.093Z,3.50
2019-04-24T19:17:54.769Z,1.00
2019-04-24T19:18:55.058Z,2.00
2019-04-24T19:19:58.289Z,1.00
2019-04-24T19:21:07.168Z,1.00
2019-04-24T19:22:11.745Z,1.00
2019-04-24T19:23:15.928Z,1.00
2019-04-24T19:24:21.010Z,1.00
2019-04-24T19:25:24.457Z,2.50
2019-04-24T19:26:31.947Z,3.00
2019-04-24T19:27:35.944Z,1.00
2019-04-24T19:28:38.807Z,1.00
2019-04-24T19:29:41.942Z,1.00
2019-04-24T19:30:44.933Z,1.00
2019-04-24T19:31:52.245Z,3.00
2019-04-24T19:32:55.251Z,2.00
2019-04-24T19:34:01.678Z,4.75
2019-04-24T19:35:06.868Z,1.00
2019-04-24T19:36:13.247Z,1.00
2019-04-24T19:37:23.192Z,1.00
2019-04-24T19:38:34.374Z,2.00
2019-04-24T19:39:39.769Z,1.00
2019-04-24T19:40:42.753Z,3.00
2019-04-24T19:41:45.722Z,1.00
2019-04-24T19:42:55.635Z,1.00
2019-04-24T19:43:59.618Z,3.00
2019-04-24T19:45:05.742Z,1.00
2019-04-24T19:46:15.446Z,3.00
2019-04-24T19:47:35.856Z,1.00
2019-04-24T19:48:30.028Z,1.00
2019-04-24T19:49:36.543Z,1.00
2019-04-24T19:50:46.658Z,1.00
2019-04-24T19:51:53.950Z,1.00
2019-04-24T19:52:59.284Z,1.00
2019-04-24T19:54:15.949Z,1.00
2019-04-24T19:55:26.214Z,1.00
2019-04-24T19:56:29.168Z,3.00
2019-04-24T19:57:34.161Z,1.00
2019-04-24T19:58:37.313Z,1.00
2019-04-24T19:59:44.147Z,1.00
2019-04-24T20:00:44.800Z,3.00
2019-04-24T20:01:49.654Z,1.00
2019-04-24T20:02:52.522Z,1.00
2019-04-24T20:03:55.390Z,1.00
2019-04-24T20:05:02.228Z,2.50
2019-04-24T20:06:06.660Z,1.00
2019-04-24T20:07:12.404Z,1.00
2019-04-24T20:08:18.116Z,1.00
2019-04-24T20:09:56.230Z,1.00
2019-04-24T20:11:24.086Z,1.00
2019-04-24T20:12:31.619Z,1.00
2019-04-24T20:13:36.329Z,1.00
2019-04-24T20:14:40.655Z,1.00
2019-04-24T20:15:43.373Z,1.00
2019-04-24T20:16:46.437Z,1.00
2019-04-24T20:17:53.523Z,1.00
2019-04-24T20:18:56.535Z,3.00
2019-04-24T20:20:02.435Z,3.00
2019-04-24T20:21:05.518Z,1.00
2019-04-24T20:22:08.696Z,3.00
2019-04-24T20:23:12.111Z,2.00
2019-04-24T20:24:21.549Z,1.00
2019-04-24T20:25:26.906Z,3.00
2019-04-24T20:26:31.164Z,2.50
2019-04-24T20:27:34.264Z,1.00
2019-04-24T20:28:37.404Z,1.00
2019-04-24T20:29:40.066Z,1.00
2019-04-24T20:30:42.979Z,1.00
2019-04-24T20:31:45.665Z,1.00
2019-04-24T20:32:48.750Z,1.00
2019-04-24T20:33:52.241Z,1.00
2019-04-24T20:34:55.027Z,1.00
2019-04-24T20:35:57.706Z,2.00
2019-04-24T20:37:04.954Z,1.00
2019-04-24T20:38:07.816Z,1.00
2019-04-24T20:39:13.573Z,1.00
2019-04-24T20:40:24.058Z,1.00
2019-04-24T20:41:28.826Z,1.00
2019-04-24T20:42:32.391Z,1.50
2019-04-24T20:43:35.102Z,1.00
2019-04-24T20:44:39.828Z,3.00
2019-04-24T20:45:43.010Z,1.00
2019-04-24T20:46:46.072Z,1.00
2019-04-24T20:47:50.761Z,1.00
2019-04-24T20:48:53.452Z,1.00
2019-04-24T20:49:59.847Z,1.00
2019-04-24T20:51:02.644Z,1.00
2019-04-24T20:52:08.800Z,1.00
2019-04-24T20:53:12.368Z,1.00
2019-04-24T20:54:16.880Z,1.00
2019-04-24T20:55:22.720Z,1.00
2019-04-24T20:56:34.035Z,2.00
2019-04-24T20:57:36.768Z,1.00
2019-04-24T20:58:42.649Z,1.00
2019-04-24T20:59:44.776Z,1.00
2019-04-24T21:00:47.594Z,3.00
2019-04-24T21:01:51.712Z,1.00
2019-04-24T21:02:57.464Z,1.00
2019-04-24T21:04:03.211Z,2.00
2019-04-24T21:05:06.520Z,3.00
2019-04-24T21:06:41.863Z,1.00
2019-04-24T21:07:57.339Z,2.00
2019-04-24T21:09:25.196Z,1.00
2019-04-24T21:10:32.046Z,1.00
2019-04-24T21:11:34.696Z,1.00
2019-04-24T21:12:39.054Z,3.00
2019-04-24T21:13:43.948Z,2.00
2019-04-24T21:15:05.238Z,1.00
2019-04-24T21:16:08.581Z,1.00
2019-04-24T21:17:12.043Z,1.00
2019-04-24T21:18:16.973Z,1.00
2019-04-24T21:19:21.336Z,2.00
2019-04-24T21:20:24.813Z,1.00
2019-04-24T21:21:31.925Z,1.00
2019-04-24T21:22:36.237Z,2.50
2019-04-24T21:23:38.907Z,2.50
2019-04-24T21:24:42.047Z,3.00
2019-04-24T21:25:45.146Z,2.50
2019-04-24T21:26:47.877Z,3.00
2019-04-24T21:27:51.502Z,3.00
2019-04-24T21:28:57.362Z,3.00